Аэропорт: Гостомель. Киев

ICAO: UKKM

METAR:
2018/07/22 20:00
UKKM 222000Z AUTO 31002MPS 280V340 9000 -SHRA SCT029CB 20/20 Q1005
METAR:
2018/07/22 18:12
TAF UKKM 221708Z 2218/2318 29005MPS 9999 BKN025 TX25/2312Z TN17/2302Z 
      TEMPO 2218/2221 2100 -SHRA BKN007 SCT020CB PROB40 
      TEMPO 2218/2221 VRB09G14MPS -TSRA SCT015CB 
      TEMPO 2221/2306 1400 -SHRA BR BKN003 SCT020CB 
      BECMG 2306/2308 34005MPS 
      TEMPO 2308/2318 VRB09G14MPS 2100 -TSRA BKN020CB